Racecast

Maya Ashe

Virginia Beach Flames (VA) · - · Compare head to head

Athlete rating
Races 33
Seasons 1 2026
Speed rating — all races

Track & Field

TF speed rating

2026 TF

Virginia Beach Flames (VA) · Grade -

Date Meet Event Result Place Rating Difficulty PR/SR Flags
2026-05-24 HR Hurricanes CAT 5 Invite 100m 15.43 18th · 6th on team -0.035 PR SR
2026-05-24 HR Hurricanes CAT 5 Invite 200m 31.24 5th · 2nd on team -0.035 ★PR SR
2026-05-24 HR Hurricanes CAT 5 Invite 400m 1:17.01 11th · 2nd on team -0.035
2026-05-24 HR Hurricanes CAT 5 Invite 100m 15.24 15th · 5th on team -0.035 ★PR SR
2026-05-09 VA "Legends" T & F Youth Invite 400m 1:13.31 7th · 2nd on team -0.033 ★PR SR
2026-05-09 VA "Legends" T & F Youth Invite 200m 33.13 14th · 2nd on team -0.033
2026-05-09 VA "Legends" T & F Youth Invite 100m 15.88 15th · 2nd on team -0.033
2026-05-02 The DMV Track and Field Classic 400m 1:20.53 6th · 3rd on team -0.021
2026-05-02 The DMV Track and Field Classic 100m 15.66 10th · 4th on team -0.021 PR SR
2026-05-02 The DMV Track and Field Classic 200m 33.32 3rd · 3rd on team -0.021
2026-05-02 The DMV Track and Field Classic 100m 15.63 9th · 3rd on team -0.021 PR SR
2026-03-06 AAU Indoor National Championship 400m 1:14.56 18th · 2nd on team -0.036
2026-03-06 AAU Indoor National Championship 200m 32.45 40th · 2nd on team -0.036 PR SR
2026-02-28 BWSP Queens and Kings Championships 200m 34.95 15th · 4th on team -0.024
2026-02-28 BWSP Queens and Kings Championships 400m 1:14.48 4th · 2nd on team -0.024 PR SR
2026-02-22 3rd Annual HRH Winter Storm Classic 200m 34.03 18th · 3rd on team -0.024
2026-02-22 3rd Annual HRH Winter Storm Classic 400m 1:16.14 6th · 2nd on team -0.024 PR SR
2026-01-31 BWSP Queens and Kings - Meet 3 55m 9.09 12th · 1st on team -0.024
2026-01-31 BWSP Queens and Kings - Meet 3 200m 33.15 6th · 1st on team -0.024 PR SR
2026-01-31 BWSP Queens and Kings - Meet 3 400m 1:18.35 9th · 1st on team -0.024
2026-01-25 Virginia Beach Flames Invitational 60m 9.88 6th · 3rd on team -0.036 ★PR SR
2026-01-25 Virginia Beach Flames Invitational 400m 1:25.25 4th · 2nd on team -0.036
2026-01-25 Virginia Beach Flames Invitational 200m 35.51 4th · 2nd on team -0.036
2026-01-25 Virginia Beach Flames Invitational 60m 9.99 9th · 4th on team -0.036
2026-01-17 BWSP Queens and Kings - Meet 2 400m 1:20.44 12th · 3rd on team -0.024
2026-01-17 BWSP Queens and Kings - Meet 2 200m 34.62 16th · 3rd on team -0.024
2026-01-17 BWSP Queens and Kings - Meet 2 55m 9.29 26th · 4th on team -0.024
2026-01-17 BWSP Queens and Kings - Meet 2 55m 8.82 11th · 1st on team -0.024 ★PR SR
2026-01-03 BWSP Queens and Kings - Meet 1 55m 9 12th · 1st on team -0.024 PR SR
2026-01-03 BWSP Queens and Kings - Meet 1 400m 1:16.89 7th · 1st on team -0.024 PR SR
2026-01-03 BWSP Queens and Kings - Meet 1 200m 35.55 16th · 1st on team -0.024
2025-12-06 Coach Miami Presents the Virginia Beast Invitational 60m 9.99 30th · 7th on team -0.036 PR SR
2025-12-06 Coach Miami Presents the Virginia Beast Invitational 200m 33.43 16th · 6th on team -0.036 PR SR